sensor_id;sensor_type;location;lat;lon;timestamp;P1;durP1;ratioP1;P2;durP2;ratioP2
31990;SDS011;18508;49.386;8.370;2022-10-16T00:02:10;3.17;;;1.90;;
31990;SDS011;18508;49.386;8.370;2022-10-16T00:04:42;6.47;;;2.00;;
31990;SDS011;18508;49.386;8.370;2022-10-16T00:07:16;3.15;;;1.73;;
31990;SDS011;18508;49.386;8.370;2022-10-16T00:09:54;5.50;;;1.77;;
31990;SDS011;18508;49.386;8.370;2022-10-16T00:12:25;2.63;;;1.55;;
31990;SDS011;18508;49.386;8.370;2022-10-16T00:14:57;4.17;;;1.93;;
31990;SDS011;18508;49.386;8.370;2022-10-16T00:17:29;3.47;;;1.80;;
31990;SDS011;18508;49.386;8.370;2022-10-16T00:20:03;3.53;;;1.95;;
31990;SDS011;18508;49.386;8.370;2022-10-16T00:22:36;4.53;;;2.15;;
31990;SDS011;18508;49.386;8.370;2022-10-16T00:25:11;2.65;;;1.70;;
31990;SDS011;18508;49.386;8.370;2022-10-16T00:27:47;3.22;;;1.67;;
31990;SDS011;18508;49.386;8.370;2022-10-16T00:30:19;4.68;;;2.03;;
31990;SDS011;18508;49.386;8.370;2022-10-16T00:32:50;5.60;;;1.67;;
31990;SDS011;18508;49.386;8.370;2022-10-16T00:35:21;4.00;;;1.92;;
31990;SDS011;18508;49.386;8.370;2022-10-16T00:38:05;3.47;;;1.92;;
31990;SDS011;18508;49.386;8.370;2022-10-16T00:40:36;6.07;;;1.92;;
31990;SDS011;18508;49.386;8.370;2022-10-16T00:43:09;4.25;;;1.80;;
31990;SDS011;18508;49.386;8.370;2022-10-16T00:45:41;3.75;;;1.80;;
31990;SDS011;18508;49.386;8.370;2022-10-16T00:48:14;3.83;;;2.17;;
31990;SDS011;18508;49.386;8.370;2022-10-16T00:50:42;4.15;;;2.15;;
31990;SDS011;18508;49.386;8.370;2022-10-16T00:53:19;2.97;;;1.70;;
31990;SDS011;18508;49.386;8.370;2022-10-16T00:58:22;4.32;;;1.88;;
31990;SDS011;18508;49.386;8.370;2022-10-16T01:00:54;3.85;;;1.92;;
31990;SDS011;18508;49.386;8.370;2022-10-16T01:03:24;3.55;;;2.03;;
31990;SDS011;18508;49.386;8.370;2022-10-16T01:06:05;6.30;;;2.13;;
31990;SDS011;18508;49.386;8.370;2022-10-16T01:08:57;3.58;;;1.58;;
31990;SDS011;18508;49.386;8.370;2022-10-16T01:11:43;3.28;;;1.80;;
31990;SDS011;18508;49.386;8.370;2022-10-16T01:14:22;2.78;;;1.65;;
31990;SDS011;18508;49.386;8.370;2022-10-16T01:17:08;3.70;;;1.90;;
31990;SDS011;18508;49.386;8.370;2022-10-16T01:19:51;2.47;;;1.67;;
31990;SDS011;18508;49.386;8.370;2022-10-16T01:22:34;4.10;;;2.05;;
31990;SDS011;18508;49.386;8.370;2022-10-16T01:25:43;6.50;;;2.10;;
31990;SDS011;18508;49.386;8.370;2022-10-16T01:28:41;6.00;;;2.00;;
31990;SDS011;18508;49.386;8.370;2022-10-16T01:31:19;4.22;;;2.10;;
31990;SDS011;18508;49.386;8.370;2022-10-16T01:33:56;4.18;;;1.85;;
31990;SDS011;18508;49.386;8.370;2022-10-16T01:36:35;3.50;;;2.00;;
31990;SDS011;18508;49.386;8.370;2022-10-16T01:39:15;4.32;;;2.08;;
31990;SDS011;18508;49.386;8.370;2022-10-16T01:42:11;4.95;;;2.13;;
31990;SDS011;18508;49.386;8.370;2022-10-16T01:44:57;3.35;;;2.13;;
31990;SDS011;18508;49.386;8.370;2022-10-16T01:47:35;4.75;;;2.20;;
31990;SDS011;18508;49.386;8.370;2022-10-16T01:50:25;5.03;;;2.00;;
31990;SDS011;18508;49.386;8.370;2022-10-16T01:52:57;4.13;;;2.45;;
31990;SDS011;18508;49.386;8.370;2022-10-16T01:55:42;4.18;;;2.20;;
31990;SDS011;18508;49.386;8.370;2022-10-16T01:58:38;3.80;;;2.10;;
31990;SDS011;18508;49.386;8.370;2022-10-16T02:01:33;4.45;;;2.63;;
31990;SDS011;18508;49.386;8.370;2022-10-16T02:04:17;3.47;;;2.20;;
31990;SDS011;18508;49.386;8.370;2022-10-16T02:07:00;3.47;;;2.00;;
31990;SDS011;18508;49.386;8.370;2022-10-16T02:09:29;4.72;;;1.95;;
31990;SDS011;18508;49.386;8.370;2022-10-16T02:12:19;3.58;;;2.30;;
31990;SDS011;18508;49.386;8.370;2022-10-16T02:15:08;6.57;;;2.50;;
31990;SDS011;18508;49.386;8.370;2022-10-16T02:17:41;3.67;;;2.15;;
31990;SDS011;18508;49.386;8.370;2022-10-16T02:20:14;7.35;;;2.30;;
31990;SDS011;18508;49.386;8.370;2022-10-16T02:22:45;3.42;;;1.85;;
31990;SDS011;18508;49.386;8.370;2022-10-16T02:25:29;4.68;;;2.30;;
31990;SDS011;18508;49.386;8.370;2022-10-16T02:28:06;11.65;;;2.97;;
31990;SDS011;18508;49.386;8.370;2022-10-16T02:30:45;4.90;;;2.78;;
31990;SDS011;18508;49.386;8.370;2022-10-16T02:33:28;5.25;;;2.92;;
31990;SDS011;18508;49.386;8.370;2022-10-16T02:36:02;4.93;;;3.38;;
31990;SDS011;18508;49.386;8.370;2022-10-16T02:38:44;3.83;;;2.80;;
31990;SDS011;18508;49.386;8.370;2022-10-16T02:41:14;4.03;;;2.67;;
31990;SDS011;18508;49.386;8.370;2022-10-16T02:43:46;3.97;;;2.20;;
31990;SDS011;18508;49.386;8.370;2022-10-16T02:46:26;2.92;;;1.77;;
31990;SDS011;18508;49.386;8.370;2022-10-16T02:48:59;3.40;;;2.10;;
31990;SDS011;18508;49.386;8.370;2022-10-16T02:51:32;7.13;;;2.83;;
31990;SDS011;18508;49.386;8.370;2022-10-16T02:54:01;3.53;;;2.45;;
31990;SDS011;18508;49.386;8.370;2022-10-16T02:56:36;3.60;;;2.28;;
31990;SDS011;18508;49.386;8.370;2022-10-16T02:59:16;3.45;;;2.20;;
31990;SDS011;18508;49.386;8.370;2022-10-16T03:01:46;3.25;;;2.00;;
31990;SDS011;18508;49.386;8.370;2022-10-16T03:04:17;3.80;;;1.92;;
31990;SDS011;18508;49.386;8.370;2022-10-16T03:06:50;5.70;;;2.10;;
31990;SDS011;18508;49.386;8.370;2022-10-16T03:09:21;3.72;;;1.98;;
31990;SDS011;18508;49.386;8.370;2022-10-16T03:11:53;3.63;;;2.05;;
31990;SDS011;18508;49.386;8.370;2022-10-16T03:14:27;3.35;;;2.03;;
31990;SDS011;18508;49.386;8.370;2022-10-16T03:17:05;3.97;;;2.43;;
31990;SDS011;18508;49.386;8.370;2022-10-16T03:19:44;3.72;;;2.30;;
31990;SDS011;18508;49.386;8.370;2022-10-16T03:22:27;3.35;;;2.05;;
31990;SDS011;18508;49.386;8.370;2022-10-16T03:25:00;5.97;;;2.15;;
31990;SDS011;18508;49.386;8.370;2022-10-16T03:27:35;4.88;;;2.60;;
31990;SDS011;18508;49.386;8.370;2022-10-16T03:30:18;3.63;;;2.20;;
31990;SDS011;18508;49.386;8.370;2022-10-16T03:32:49;4.15;;;2.58;;
31990;SDS011;18508;49.386;8.370;2022-10-16T03:35:29;6.03;;;2.80;;
31990;SDS011;18508;49.386;8.370;2022-10-16T03:38:07;5.97;;;2.45;;
31990;SDS011;18508;49.386;8.370;2022-10-16T03:40:37;5.18;;;2.85;;
31990;SDS011;18508;49.386;8.370;2022-10-16T03:43:07;3.95;;;2.45;;
31990;SDS011;18508;49.386;8.370;2022-10-16T03:45:52;4.00;;;2.50;;
31990;SDS011;18508;49.386;8.370;2022-10-16T03:48:24;4.55;;;2.22;;
31990;SDS011;18508;49.386;8.370;2022-10-16T03:50:57;3.22;;;2.17;;
31990;SDS011;18508;49.386;8.370;2022-10-16T03:53:29;4.65;;;2.65;;
31990;SDS011;18508;49.386;8.370;2022-10-16T03:56:08;3.40;;;2.50;;
31990;SDS011;18508;49.386;8.370;2022-10-16T03:58:42;3.80;;;2.15;;
31990;SDS011;18508;49.386;8.370;2022-10-16T04:01:17;3.38;;;2.15;;
31990;SDS011;18508;49.386;8.370;2022-10-16T04:03:51;3.20;;;2.13;;
31990;SDS011;18508;49.386;8.370;2022-10-16T04:06:28;3.60;;;2.50;;
31990;SDS011;18508;49.386;8.370;2022-10-16T04:09:03;3.53;;;2.42;;
31990;SDS011;18508;49.386;8.370;2022-10-16T04:11:37;4.65;;;2.50;;
31990;SDS011;18508;49.386;8.370;2022-10-16T04:14:12;4.47;;;2.70;;
31990;SDS011;18508;49.386;8.370;2022-10-16T04:16:44;4.63;;;2.40;;
31990;SDS011;18508;49.386;8.370;2022-10-16T04:19:20;4.60;;;2.35;;
31990;SDS011;18508;49.386;8.370;2022-10-16T04:21:56;4.55;;;2.38;;
31990;SDS011;18508;49.386;8.370;2022-10-16T04:24:31;5.85;;;2.70;;
31990;SDS011;18508;49.386;8.370;2022-10-16T04:27:03;4.68;;;2.45;;
31990;SDS011;18508;49.386;8.370;2022-10-16T04:29:34;4.45;;;2.42;;
31990;SDS011;18508;49.386;8.370;2022-10-16T04:32:04;6.10;;;2.78;;
31990;SDS011;18508;49.386;8.370;2022-10-16T04:34:40;4.20;;;2.70;;
31990;SDS011;18508;49.386;8.370;2022-10-16T04:37:18;4.60;;;2.90;;
31990;SDS011;18508;49.386;8.370;2022-10-16T04:40:00;3.72;;;2.58;;
31990;SDS011;18508;49.386;8.370;2022-10-16T04:42:33;6.43;;;3.15;;
31990;SDS011;18508;49.386;8.370;2022-10-16T04:45:04;4.55;;;2.53;;
31990;SDS011;18508;49.386;8.370;2022-10-16T04:47:44;7.55;;;2.88;;
31990;SDS011;18508;49.386;8.370;2022-10-16T04:50:16;4.80;;;2.60;;
31990;SDS011;18508;49.386;8.370;2022-10-16T04:53:07;4.10;;;2.60;;
31990;SDS011;18508;49.386;8.370;2022-10-16T04:55:49;4.63;;;2.80;;
31990;SDS011;18508;49.386;8.370;2022-10-16T04:58:37;4.13;;;2.70;;
31990;SDS011;18508;49.386;8.370;2022-10-16T05:01:11;5.18;;;3.05;;
31990;SDS011;18508;49.386;8.370;2022-10-16T05:03:59;6.32;;;3.17;;
31990;SDS011;18508;49.386;8.370;2022-10-16T05:06:48;5.22;;;3.47;;
31990;SDS011;18508;49.386;8.370;2022-10-16T05:14:51;5.35;;;2.97;;
31990;SDS011;18508;49.386;8.370;2022-10-16T05:17:30;6.15;;;3.55;;
31990;SDS011;18508;49.386;8.370;2022-10-16T05:20:00;6.80;;;3.55;;
31990;SDS011;18508;49.386;8.370;2022-10-16T05:22:46;5.82;;;3.70;;
31990;SDS011;18508;49.386;8.370;2022-10-16T05:25:15;7.55;;;4.10;;
31990;SDS011;18508;49.386;8.370;2022-10-16T05:27:55;4.90;;;3.70;;
31990;SDS011;18508;49.386;8.370;2022-10-16T05:30:30;7.68;;;3.58;;
31990;SDS011;18508;49.386;8.370;2022-10-16T05:33:10;5.85;;;3.60;;
31990;SDS011;18508;49.386;8.370;2022-10-16T05:35:44;4.95;;;3.45;;
31990;SDS011;18508;49.386;8.370;2022-10-16T05:38:17;5.15;;;3.67;;
31990;SDS011;18508;49.386;8.370;2022-10-16T05:40:50;5.22;;;3.85;;
31990;SDS011;18508;49.386;8.370;2022-10-16T05:43:41;5.03;;;3.25;;
31990;SDS011;18508;49.386;8.370;2022-10-16T05:46:23;5.65;;;3.80;;
31990;SDS011;18508;49.386;8.370;2022-10-16T05:48:52;5.13;;;3.42;;
31990;SDS011;18508;49.386;8.370;2022-10-16T05:51:43;5.78;;;3.47;;
31990;SDS011;18508;49.386;8.370;2022-10-16T05:54:18;5.28;;;3.10;;
31990;SDS011;18508;49.386;8.370;2022-10-16T05:56:55;5.45;;;3.58;;
31990;SDS011;18508;49.386;8.370;2022-10-16T05:59:37;5.55;;;3.72;;
31990;SDS011;18508;49.386;8.370;2022-10-16T06:02:11;6.28;;;3.65;;
31990;SDS011;18508;49.386;8.370;2022-10-16T06:04:44;6.32;;;3.10;;
31990;SDS011;18508;49.386;8.370;2022-10-16T06:07:19;4.80;;;3.30;;
31990;SDS011;18508;49.386;8.370;2022-10-16T06:09:56;8.18;;;3.55;;
31990;SDS011;18508;49.386;8.370;2022-10-16T06:12:33;7.95;;;3.20;;
31990;SDS011;18508;49.386;8.370;2022-10-16T06:15:10;4.57;;;3.10;;
31990;SDS011;18508;49.386;8.370;2022-10-16T06:17:46;4.45;;;2.95;;
31990;SDS011;18508;49.386;8.370;2022-10-16T06:20:25;6.93;;;3.90;;
31990;SDS011;18508;49.386;8.370;2022-10-16T06:23:06;6.22;;;3.22;;
31990;SDS011;18508;49.386;8.370;2022-10-16T06:25:41;5.90;;;3.28;;
31990;SDS011;18508;49.386;8.370;2022-10-16T06:28:16;5.55;;;3.20;;
31990;SDS011;18508;49.386;8.370;2022-10-16T06:30:59;6.40;;;3.65;;
31990;SDS011;18508;49.386;8.370;2022-10-16T06:33:33;8.82;;;4.05;;
31990;SDS011;18508;49.386;8.370;2022-10-16T06:36:02;6.78;;;4.10;;
31990;SDS011;18508;49.386;8.370;2022-10-16T06:38:34;6.70;;;3.70;;
31990;SDS011;18508;49.386;8.370;2022-10-16T06:41:12;5.82;;;3.33;;
31990;SDS011;18508;49.386;8.370;2022-10-16T06:43:44;5.57;;;3.10;;
31990;SDS011;18508;49.386;8.370;2022-10-16T06:46:19;5.03;;;3.35;;
31990;SDS011;18508;49.386;8.370;2022-10-16T06:48:50;5.05;;;3.25;;
31990;SDS011;18508;49.386;8.370;2022-10-16T06:51:19;5.03;;;3.67;;
31990;SDS011;18508;49.386;8.370;2022-10-16T06:53:51;6.82;;;3.90;;
31990;SDS011;18508;49.386;8.370;2022-10-16T06:56:29;5.47;;;3.05;;
31990;SDS011;18508;49.386;8.370;2022-10-16T06:58:58;7.70;;;5.47;;
31990;SDS011;18508;49.386;8.370;2022-10-16T07:01:34;6.22;;;4.32;;
31990;SDS011;18508;49.386;8.370;2022-10-16T07:04:03;5.82;;;3.97;;
31990;SDS011;18508;49.386;8.370;2022-10-16T07:06:33;5.95;;;3.70;;
31990;SDS011;18508;49.386;8.370;2022-10-16T07:09:04;6.80;;;4.00;;
31990;SDS011;18508;49.386;8.370;2022-10-16T07:11:34;5.20;;;3.47;;
31990;SDS011;18508;49.386;8.370;2022-10-16T07:14:10;5.65;;;3.40;;
31990;SDS011;18508;49.386;8.370;2022-10-16T07:16:45;5.97;;;3.30;;
31990;SDS011;18508;49.386;8.370;2022-10-16T07:19:16;7.03;;;3.38;;
31990;SDS011;18508;49.386;8.370;2022-10-16T07:21:45;4.60;;;3.20;;
31990;SDS011;18508;49.386;8.370;2022-10-16T07:24:17;5.65;;;4.00;;
31990;SDS011;18508;49.386;8.370;2022-10-16T07:26:46;4.68;;;3.47;;
31990;SDS011;18508;49.386;8.370;2022-10-16T07:29:19;5.10;;;3.30;;
31990;SDS011;18508;49.386;8.370;2022-10-16T07:31:52;7.35;;;4.32;;
31990;SDS011;18508;49.386;8.370;2022-10-16T07:34:20;7.50;;;4.40;;
31990;SDS011;18508;49.386;8.370;2022-10-16T07:36:49;7.50;;;4.15;;
31990;SDS011;18508;49.386;8.370;2022-10-16T07:39:19;7.10;;;3.70;;
31990;SDS011;18508;49.386;8.370;2022-10-16T07:41:49;6.88;;;3.78;;
31990;SDS011;18508;49.386;8.370;2022-10-16T07:44:18;5.55;;;3.88;;
31990;SDS011;18508;49.386;8.370;2022-10-16T07:46:47;4.72;;;3.63;;
31990;SDS011;18508;49.386;8.370;2022-10-16T07:49:17;6.07;;;3.80;;
31990;SDS011;18508;49.386;8.370;2022-10-16T07:51:47;6.13;;;3.63;;
31990;SDS011;18508;49.386;8.370;2022-10-16T07:54:16;6.50;;;3.88;;
31990;SDS011;18508;49.386;8.370;2022-10-16T07:56:51;5.95;;;4.05;;
31990;SDS011;18508;49.386;8.370;2022-10-16T07:59:20;6.55;;;3.72;;
31990;SDS011;18508;49.386;8.370;2022-10-16T08:01:49;5.90;;;3.25;;
31990;SDS011;18508;49.386;8.370;2022-10-16T08:04:19;5.47;;;2.95;;
31990;SDS011;18508;49.386;8.370;2022-10-16T08:06:48;4.82;;;3.08;;
31990;SDS011;18508;49.386;8.370;2022-10-16T08:09:20;4.65;;;3.03;;
31990;SDS011;18508;49.386;8.370;2022-10-16T08:11:55;5.93;;;3.17;;
31990;SDS011;18508;49.386;8.370;2022-10-16T08:14:27;5.07;;;3.00;;
31990;SDS011;18508;49.386;8.370;2022-10-16T08:16:56;4.35;;;2.78;;
31990;SDS011;18508;49.386;8.370;2022-10-16T08:19:30;7.10;;;3.72;;
31990;SDS011;18508;49.386;8.370;2022-10-16T08:22:01;5.50;;;3.58;;
31990;SDS011;18508;49.386;8.370;2022-10-16T08:24:30;8.10;;;3.63;;
31990;SDS011;18508;49.386;8.370;2022-10-16T08:27:01;7.00;;;3.80;;
31990;SDS011;18508;49.386;8.370;2022-10-16T08:29:30;6.55;;;3.13;;
31990;SDS011;18508;49.386;8.370;2022-10-16T08:32:00;6.13;;;4.03;;
31990;SDS011;18508;49.386;8.370;2022-10-16T08:34:36;6.13;;;3.92;;
31990;SDS011;18508;49.386;8.370;2022-10-16T08:37:04;5.90;;;3.08;;
31990;SDS011;18508;49.386;8.370;2022-10-16T08:39:35;5.13;;;2.53;;
31990;SDS011;18508;49.386;8.370;2022-10-16T08:42:11;4.72;;;2.38;;
31990;SDS011;18508;49.386;8.370;2022-10-16T08:47:35;3.85;;;2.10;;
31990;SDS011;18508;49.386;8.370;2022-10-16T08:50:17;4.13;;;1.92;;
31990;SDS011;18508;49.386;8.370;2022-10-16T08:52:50;5.78;;;2.35;;
31990;SDS011;18508;49.386;8.370;2022-10-16T08:55:29;5.07;;;2.17;;
31990;SDS011;18508;49.386;8.370;2022-10-16T08:58:01;6.05;;;2.58;;
31990;SDS011;18508;49.386;8.370;2022-10-16T09:00:39;5.68;;;2.78;;
31990;SDS011;18508;49.386;8.370;2022-10-16T09:03:14;4.95;;;2.60;;
31990;SDS011;18508;49.386;8.370;2022-10-16T09:05:57;5.13;;;3.22;;
31990;SDS011;18508;49.386;8.370;2022-10-16T09:08:47;4.30;;;3.20;;
31990;SDS011;18508;49.386;8.370;2022-10-16T09:11:31;5.15;;;3.20;;
31990;SDS011;18508;49.386;8.370;2022-10-16T09:14:13;4.53;;;2.53;;
31990;SDS011;18508;49.386;8.370;2022-10-16T09:17:04;4.55;;;2.83;;
31990;SDS011;18508;49.386;8.370;2022-10-16T09:19:45;4.60;;;2.60;;
31990;SDS011;18508;49.386;8.370;2022-10-16T09:22:21;5.22;;;2.78;;
31990;SDS011;18508;49.386;8.370;2022-10-16T09:24:55;4.38;;;2.58;;
31990;SDS011;18508;49.386;8.370;2022-10-16T09:27:29;3.78;;;2.30;;
31990;SDS011;18508;49.386;8.370;2022-10-16T09:29:58;5.57;;;1.95;;
31990;SDS011;18508;49.386;8.370;2022-10-16T09:32:38;3.58;;;2.03;;
31990;SDS011;18508;49.386;8.370;2022-10-16T09:35:16;2.88;;;1.80;;
31990;SDS011;18508;49.386;8.370;2022-10-16T09:37:53;3.33;;;1.80;;
31990;SDS011;18508;49.386;8.370;2022-10-16T09:40:26;2.78;;;1.98;;
31990;SDS011;18508;49.386;8.370;2022-10-16T09:43:01;3.45;;;1.90;;
31990;SDS011;18508;49.386;8.370;2022-10-16T09:45:34;3.20;;;1.98;;
31990;SDS011;18508;49.386;8.370;2022-10-16T09:48:10;5.63;;;1.85;;
31990;SDS011;18508;49.386;8.370;2022-10-16T09:50:40;3.97;;;2.00;;
31990;SDS011;18508;49.386;8.370;2022-10-16T09:53:13;6.35;;;1.58;;
31990;SDS011;18508;49.386;8.370;2022-10-16T09:55:47;3.38;;;2.03;;
31990;SDS011;18508;49.386;8.370;2022-10-16T09:58:17;2.97;;;1.65;;
31990;SDS011;18508;49.386;8.370;2022-10-16T10:00:52;3.30;;;2.03;;
31990;SDS011;18508;49.386;8.370;2022-10-16T10:03:30;4.17;;;1.80;;
31990;SDS011;18508;49.386;8.370;2022-10-16T10:06:05;3.83;;;1.70;;
31990;SDS011;18508;49.386;8.370;2022-10-16T10:14:30;5.30;;;1.70;;
31990;SDS011;18508;49.386;8.370;2022-10-16T10:17:11;3.90;;;1.73;;
31990;SDS011;18508;49.386;8.370;2022-10-16T10:19:46;3.85;;;1.80;;
31990;SDS011;18508;49.386;8.370;2022-10-16T10:24:56;3.58;;;2.30;;
31990;SDS011;18508;49.386;8.370;2022-10-16T10:27:39;2.53;;;1.60;;
31990;SDS011;18508;49.386;8.370;2022-10-16T10:30:19;5.20;;;1.85;;
31990;SDS011;18508;49.386;8.370;2022-10-16T10:32:56;2.58;;;1.70;;
31990;SDS011;18508;49.386;8.370;2022-10-16T10:35:41;5.35;;;1.70;;
31990;SDS011;18508;49.386;8.370;2022-10-16T10:38:20;4.30;;;1.65;;
31990;SDS011;18508;49.386;8.370;2022-10-16T10:41:04;4.70;;;1.80;;
31990;SDS011;18508;49.386;8.370;2022-10-16T10:43:56;2.78;;;1.40;;
31990;SDS011;18508;49.386;8.370;2022-10-16T10:46:38;2.78;;;1.50;;
31990;SDS011;18508;49.386;8.370;2022-10-16T10:49:23;3.85;;;1.70;;
31990;SDS011;18508;49.386;8.370;2022-10-16T10:52:10;2.70;;;1.80;;
31990;SDS011;18508;49.386;8.370;2022-10-16T10:54:57;4.72;;;1.77;;
31990;SDS011;18508;49.386;8.370;2022-10-16T10:57:34;4.63;;;1.83;;
31990;SDS011;18508;49.386;8.370;2022-10-16T11:00:15;2.53;;;1.45;;
31990;SDS011;18508;49.386;8.370;2022-10-16T11:02:50;3.28;;;1.60;;
31990;SDS011;18508;49.386;8.370;2022-10-16T11:05:31;3.83;;;1.80;;
31990;SDS011;18508;49.386;8.370;2022-10-16T11:08:09;3.72;;;1.70;;
31990;SDS011;18508;49.386;8.370;2022-10-16T11:10:47;2.80;;;1.52;;
31990;SDS011;18508;49.386;8.370;2022-10-16T11:13:38;3.08;;;1.45;;
31990;SDS011;18508;49.386;8.370;2022-10-16T11:16:16;3.78;;;2.00;;
31990;SDS011;18508;49.386;8.370;2022-10-16T11:18:49;5.97;;;1.92;;
31990;SDS011;18508;49.386;8.370;2022-10-16T11:21:25;3.75;;;2.28;;
31990;SDS011;18508;49.386;8.370;2022-10-16T11:23:59;3.10;;;1.85;;
31990;SDS011;18508;49.386;8.370;2022-10-16T11:26:33;2.70;;;1.58;;
31990;SDS011;18508;49.386;8.370;2022-10-16T11:29:12;2.88;;;1.70;;
31990;SDS011;18508;49.386;8.370;2022-10-16T11:31:48;2.50;;;1.38;;
31990;SDS011;18508;49.386;8.370;2022-10-16T11:34:21;3.17;;;1.77;;
31990;SDS011;18508;49.386;8.370;2022-10-16T11:37:04;3.85;;;1.95;;
31990;SDS011;18508;49.386;8.370;2022-10-16T11:39:36;7.07;;;4.75;;
31990;SDS011;18508;49.386;8.370;2022-10-16T11:42:10;3.28;;;2.03;;
31990;SDS011;18508;49.386;8.370;2022-10-16T11:44:48;2.38;;;1.75;;
31990;SDS011;18508;49.386;8.370;2022-10-16T11:47:27;3.30;;;2.00;;
31990;SDS011;18508;49.386;8.370;2022-10-16T11:50:22;4.72;;;1.90;;
31990;SDS011;18508;49.386;8.370;2022-10-16T11:53:13;4.95;;;2.20;;
31990;SDS011;18508;49.386;8.370;2022-10-16T11:55:54;3.20;;;1.80;;
31990;SDS011;18508;49.386;8.370;2022-10-16T11:58:25;3.17;;;1.73;;
31990;SDS011;18508;49.386;8.370;2022-10-16T12:01:04;4.03;;;2.10;;
31990;SDS011;18508;49.386;8.370;2022-10-16T12:03:46;3.47;;;1.88;;
31990;SDS011;18508;49.386;8.370;2022-10-16T12:06:25;3.00;;;1.70;;
31990;SDS011;18508;49.386;8.370;2022-10-16T12:08:59;2.78;;;1.52;;
31990;SDS011;18508;49.386;8.370;2022-10-16T12:11:31;2.30;;;1.63;;
31990;SDS011;18508;49.386;8.370;2022-10-16T12:14:05;4.05;;;1.70;;
31990;SDS011;18508;49.386;8.370;2022-10-16T12:16:53;2.95;;;1.50;;
31990;SDS011;18508;49.386;8.370;2022-10-16T12:19:23;4.03;;;1.85;;
31990;SDS011;18508;49.386;8.370;2022-10-16T12:21:54;2.35;;;1.40;;
31990;SDS011;18508;49.386;8.370;2022-10-16T12:24:31;4.05;;;1.70;;
31990;SDS011;18508;49.386;8.370;2022-10-16T12:27:02;2.20;;;1.55;;
31990;SDS011;18508;49.386;8.370;2022-10-16T12:29:34;2.97;;;1.65;;
31990;SDS011;18508;49.386;8.370;2022-10-16T12:32:19;2.50;;;1.40;;
31990;SDS011;18508;49.386;8.370;2022-10-16T12:35:17;3.60;;;1.90;;
31990;SDS011;18508;49.386;8.370;2022-10-16T12:37:49;3.38;;;1.65;;
31990;SDS011;18508;49.386;8.370;2022-10-16T12:40:26;2.53;;;1.40;;
31990;SDS011;18508;49.386;8.370;2022-10-16T12:42:58;2.17;;;1.48;;
31990;SDS011;18508;49.386;8.370;2022-10-16T12:45:38;4.47;;;1.70;;
31990;SDS011;18508;49.386;8.370;2022-10-16T12:48:20;2.10;;;1.40;;
31990;SDS011;18508;49.386;8.370;2022-10-16T12:51:11;3.42;;;1.67;;
31990;SDS011;18508;49.386;8.370;2022-10-16T12:53:57;2.63;;;1.58;;
31990;SDS011;18508;49.386;8.370;2022-10-16T12:56:28;2.38;;;1.60;;
31990;SDS011;18508;49.386;8.370;2022-10-16T12:59:14;2.88;;;1.52;;
31990;SDS011;18508;49.386;8.370;2022-10-16T13:01:55;3.35;;;1.70;;
31990;SDS011;18508;49.386;8.370;2022-10-16T13:04:57;2.38;;;1.40;;
31990;SDS011;18508;49.386;8.370;2022-10-16T13:07:49;5.03;;;1.83;;
31990;SDS011;18508;49.386;8.370;2022-10-16T13:10:28;3.08;;;1.65;;
31990;SDS011;18508;49.386;8.370;2022-10-16T13:13:12;3.15;;;1.70;;
31990;SDS011;18508;49.386;8.370;2022-10-16T13:15:52;3.20;;;1.70;;
31990;SDS011;18508;49.386;8.370;2022-10-16T13:18:33;3.17;;;1.63;;
31990;SDS011;18508;49.386;8.370;2022-10-16T13:21:16;3.97;;;1.98;;
31990;SDS011;18508;49.386;8.370;2022-10-16T13:23:54;6.90;;;2.08;;
31990;SDS011;18508;49.386;8.370;2022-10-16T13:26:31;3.90;;;1.98;;
31990;SDS011;18508;49.386;8.370;2022-10-16T13:29:08;4.00;;;2.00;;
31990;SDS011;18508;49.386;8.370;2022-10-16T13:31:37;3.38;;;2.17;;
31990;SDS011;18508;49.386;8.370;2022-10-16T13:34:06;3.53;;;2.15;;
31990;SDS011;18508;49.386;8.370;2022-10-16T13:36:44;2.58;;;1.73;;
31990;SDS011;18508;49.386;8.370;2022-10-16T13:39:20;3.08;;;1.80;;
31990;SDS011;18508;49.386;8.370;2022-10-16T13:41:59;2.50;;;1.70;;
31990;SDS011;18508;49.386;8.370;2022-10-16T13:44:35;4.28;;;2.10;;
31990;SDS011;18508;49.386;8.370;2022-10-16T13:49:42;8.32;;;3.10;;
31990;SDS011;18508;49.386;8.370;2022-10-16T13:52:18;4.88;;;2.53;;
31990;SDS011;18508;49.386;8.370;2022-10-16T13:54:48;4.28;;;1.95;;
31990;SDS011;18508;49.386;8.370;2022-10-16T13:57:18;4.57;;;2.60;;
31990;SDS011;18508;49.386;8.370;2022-10-16T13:59:53;3.83;;;2.05;;
31990;SDS011;18508;49.386;8.370;2022-10-16T14:02:22;3.15;;;2.05;;
31990;SDS011;18508;49.386;8.370;2022-10-16T14:04:55;4.95;;;2.65;;
31990;SDS011;18508;49.386;8.370;2022-10-16T14:07:29;10.80;;;5.07;;
31990;SDS011;18508;49.386;8.370;2022-10-16T14:10:04;8.73;;;4.57;;
31990;SDS011;18508;49.386;8.370;2022-10-16T14:12:36;9.50;;;5.32;;
31990;SDS011;18508;49.386;8.370;2022-10-16T14:15:15;8.93;;;5.70;;
31990;SDS011;18508;49.386;8.370;2022-10-16T14:17:48;5.73;;;3.83;;
31990;SDS011;18508;49.386;8.370;2022-10-16T14:20:22;9.55;;;3.42;;
31990;SDS011;18508;49.386;8.370;2022-10-16T14:23:02;5.63;;;3.30;;
31990;SDS011;18508;49.386;8.370;2022-10-16T14:25:47;5.27;;;2.93;;
31990;SDS011;18508;49.386;8.370;2022-10-16T14:28:22;4.25;;;2.60;;
31990;SDS011;18508;49.386;8.370;2022-10-16T14:30:52;3.58;;;2.35;;
31990;SDS011;18508;49.386;8.370;2022-10-16T14:33:30;4.78;;;3.00;;
31990;SDS011;18508;49.386;8.370;2022-10-16T14:36:02;6.65;;;3.95;;
31990;SDS011;18508;49.386;8.370;2022-10-16T14:38:33;7.68;;;3.65;;
31990;SDS011;18508;49.386;8.370;2022-10-16T14:41:04;6.57;;;3.67;;
31990;SDS011;18508;49.386;8.370;2022-10-16T14:43:34;4.53;;;3.05;;
31990;SDS011;18508;49.386;8.370;2022-10-16T14:46:06;5.47;;;3.15;;
31990;SDS011;18508;49.386;8.370;2022-10-16T14:48:40;6.30;;;2.72;;
31990;SDS011;18508;49.386;8.370;2022-10-16T14:51:11;4.95;;;2.42;;
31990;SDS011;18508;49.386;8.370;2022-10-16T14:53:44;5.80;;;2.90;;
31990;SDS011;18508;49.386;8.370;2022-10-16T14:56:14;4.43;;;2.58;;
31990;SDS011;18508;49.386;8.370;2022-10-16T14:58:45;3.97;;;2.28;;
31990;SDS011;18508;49.386;8.370;2022-10-16T15:01:14;3.35;;;2.10;;
31990;SDS011;18508;49.386;8.370;2022-10-16T15:03:42;5.40;;;2.42;;
31990;SDS011;18508;49.386;8.370;2022-10-16T15:06:12;4.32;;;2.45;;
31990;SDS011;18508;49.386;8.370;2022-10-16T15:08:52;5.10;;;2.42;;
31990;SDS011;18508;49.386;8.370;2022-10-16T15:11:20;4.15;;;2.30;;
31990;SDS011;18508;49.386;8.370;2022-10-16T15:13:49;4.10;;;2.40;;
31990;SDS011;18508;49.386;8.370;2022-10-16T15:16:18;4.50;;;2.75;;
31990;SDS011;18508;49.386;8.370;2022-10-16T15:18:47;3.83;;;2.78;;
31990;SDS011;18508;49.386;8.370;2022-10-16T15:21:19;3.35;;;2.42;;
31990;SDS011;18508;49.386;8.370;2022-10-16T15:23:58;4.00;;;2.92;;
31990;SDS011;18508;49.386;8.370;2022-10-16T15:26:27;6.47;;;3.28;;
31990;SDS011;18508;49.386;8.370;2022-10-16T15:28:58;6.13;;;3.25;;
31990;SDS011;18508;49.386;8.370;2022-10-16T15:31:26;4.22;;;2.80;;
31990;SDS011;18508;49.386;8.370;2022-10-16T15:33:54;4.63;;;2.95;;
31990;SDS011;18508;49.386;8.370;2022-10-16T15:36:28;5.30;;;3.15;;
31990;SDS011;18508;49.386;8.370;2022-10-16T15:39:01;7.32;;;3.15;;
31990;SDS011;18508;49.386;8.370;2022-10-16T15:41:30;4.50;;;2.90;;
31990;SDS011;18508;49.386;8.370;2022-10-16T15:44:03;5.05;;;2.88;;
31990;SDS011;18508;49.386;8.370;2022-10-16T15:46:33;5.40;;;2.47;;
31990;SDS011;18508;49.386;8.370;2022-10-16T15:49:04;3.95;;;2.50;;
31990;SDS011;18508;49.386;8.370;2022-10-16T15:51:34;3.70;;;2.40;;
31990;SDS011;18508;49.386;8.370;2022-10-16T15:54:07;3.63;;;2.53;;
31990;SDS011;18508;49.386;8.370;2022-10-16T15:56:35;4.32;;;2.45;;
31990;SDS011;18508;49.386;8.370;2022-10-16T15:59:04;4.30;;;2.88;;
31990;SDS011;18508;49.386;8.370;2022-10-16T16:01:33;4.30;;;2.65;;
31990;SDS011;18508;49.386;8.370;2022-10-16T16:04:02;4.57;;;2.88;;